createdAt,value
2019-02-26T00:01:28.676Z,16.7
2019-02-26T00:02:33.114Z,16.8
2019-02-26T00:03:35.979Z,16.7
2019-02-26T00:04:38.435Z,16.7
2019-02-26T00:05:40.855Z,16.7
2019-02-26T00:10:01.848Z,16.7
2019-02-26T00:11:10.788Z,16.8
2019-02-26T00:12:12.765Z,16.8
2019-02-26T00:13:14.903Z,16.7
2019-02-26T00:14:20.237Z,16.8
2019-02-26T00:15:26.667Z,16.8
2019-02-26T00:18:42.759Z,16.7
2019-02-26T00:19:45.188Z,16.7
2019-02-26T00:20:47.616Z,16.7
2019-02-26T00:21:54.218Z,16.8
2019-02-26T00:24:02.403Z,16.8
2019-02-26T00:25:15.281Z,16.8
2019-02-26T00:26:22.235Z,16.8
2019-02-26T00:28:29.800Z,16.7
2019-02-26T00:29:32.705Z,16.8
2019-02-26T00:31:39.566Z,16.7
2019-02-26T00:32:42.010Z,16.8
2019-02-26T00:33:44.157Z,16.8
2019-02-26T00:34:46.598Z,16.8
2019-02-26T00:35:50.686Z,16.8
2019-02-26T00:36:53.119Z,16.9
2019-02-26T00:37:56.318Z,16.9
2019-02-26T00:39:02.819Z,16.9
2019-02-26T00:40:09.891Z,16.9
2019-02-26T00:42:26.303Z,16.9
2019-02-26T00:43:36.726Z,16.9
2019-02-26T00:44:39.283Z,16.9
2019-02-26T00:45:41.431Z,16.9
2019-02-26T00:46:43.870Z,16.9
2019-02-26T00:47:46.770Z,16.9
2019-02-26T00:48:49.196Z,16.9
2019-02-26T00:50:59.301Z,16.9
2019-02-26T00:52:06.325Z,17
2019-02-26T00:53:10.666Z,16.9
2019-02-26T00:54:13.081Z,16.9
2019-02-26T00:55:15.241Z,16.9
2019-02-26T00:56:17.691Z,17
2019-02-26T00:57:20.117Z,17
2019-02-26T00:58:21.996Z,16.9
2019-02-26T00:59:24.155Z,17
2019-02-26T01:01:31.283Z,17.1
2019-02-26T01:02:33.465Z,17
2019-02-26T01:03:35.627Z,17
2019-02-26T01:04:41.444Z,17
2019-02-26T01:05:50.387Z,17
2019-02-26T01:06:52.534Z,17.1
2019-02-26T01:07:54.994Z,17.1
2019-02-26T01:09:01.215Z,17
2019-02-26T01:10:04.630Z,17
2019-02-26T01:11:08.833Z,17
2019-02-26T01:13:15.996Z,17.1
2019-02-26T01:14:22.376Z,17.1
2019-02-26T01:15:26.677Z,17.1
2019-02-26T01:16:28.827Z,17.1
2019-02-26T01:17:33.348Z,17.1
2019-02-26T01:18:37.551Z,17.2
2019-02-26T01:21:49.929Z,17.2
2019-02-26T01:22:52.067Z,17.1
2019-02-26T01:23:54.497Z,17.1
2019-02-26T01:25:02.546Z,17.2
2019-02-26T01:26:04.427Z,17.1
2019-02-26T01:27:06.854Z,17.1
2019-02-26T01:28:09.299Z,17.2
2019-02-26T01:31:29.188Z,17.2
2019-02-26T01:32:32.934Z,17.2
2019-02-26T01:33:35.390Z,17.2
2019-02-26T01:34:40.487Z,17.2
2019-02-26T01:35:44.442Z,17.2
2019-02-26T01:38:56.567Z,17.2
2019-02-26T01:39:58.997Z,17.2
2019-02-26T01:41:01.161Z,17.3
2019-02-26T01:42:03.587Z,17.2
2019-02-26T01:43:06.156Z,17.2
2019-02-26T01:44:09.348Z,17.2
2019-02-26T01:45:11.469Z,17.2
2019-02-26T01:48:23.587Z,17.2
2019-02-26T01:50:33.351Z,17.2
2019-02-26T01:51:45.539Z,17.2
2019-02-26T01:53:54.189Z,17.3
2019-02-26T01:58:10.989Z,17.2
2019-02-26T02:00:25.406Z,17.2
2019-02-26T02:01:27.382Z,17.3
2019-02-26T02:02:30.539Z,17.3
2019-02-26T02:03:33.139Z,17.3
2019-02-26T02:05:40.271Z,17.3
2019-02-26T02:06:46.404Z,17.3
2019-02-26T02:11:07.309Z,17.3
2019-02-26T02:12:11.588Z,17.3
2019-02-26T02:13:13.475Z,17.4
2019-02-26T02:14:17.322Z,17.2
2019-02-26T02:16:27.133Z,17.2
2019-02-26T02:18:35.850Z,17.3
2019-02-26T02:19:38.010Z,17.3
2019-02-26T02:20:39.890Z,17.4
2019-02-26T02:21:42.321Z,17.2
2019-02-26T02:22:45.048Z,17.3
2019-02-26T02:23:50.838Z,17.2
2019-02-26T02:24:56.196Z,17.3
2019-02-26T02:27:03.621Z,17.3
2019-02-26T02:28:06.047Z,17.3
2019-02-26T02:29:08.469Z,17.3
2019-02-26T02:31:21.910Z,17.2
2019-02-26T02:35:39.534Z,17.3
2019-02-26T02:36:41.690Z,17.2
2019-02-26T02:37:44.121Z,17.2
2019-02-26T02:38:46.540Z,17.4
2019-02-26T02:39:48.970Z,17.3
2019-02-26T02:41:56.122Z,17.2
2019-02-26T02:43:03.928Z,17.4
2019-02-26T02:44:03.988Z,17.4
2019-02-26T02:46:11.442Z,17.2
2019-02-26T02:47:13.872Z,17.4
2019-02-26T02:48:16.022Z,17.3
2019-02-26T02:49:18.535Z,17.3
2019-02-26T02:50:20.681Z,17.4
2019-02-26T02:51:22.829Z,17.3
2019-02-26T02:53:33.753Z,17.3
2019-02-26T02:54:38.413Z,17.4
2019-02-26T02:56:46.631Z,17.4
2019-02-26T02:58:53.765Z,17.3
2019-02-26T02:59:59.677Z,17.3
2019-02-26T03:01:03.180Z,17.3
2019-02-26T03:02:05.309Z,17.3
2019-02-26T03:03:07.466Z,17.3
2019-02-26T03:04:09.635Z,17.4
2019-02-26T03:05:15.784Z,17.3
2019-02-26T03:06:18.209Z,17.3
2019-02-26T03:07:23.537Z,17.4
2019-02-26T03:08:27.610Z,17.4
2019-02-26T03:09:34.338Z,17.3
2019-02-26T03:16:02.271Z,17.4
2019-02-26T03:20:21.752Z,17.4
2019-02-26T03:21:31.214Z,17.3
2019-02-26T03:24:43.606Z,17.4
2019-02-26T03:25:49.787Z,17.3
2019-02-26T03:26:55.845Z,17.4
2019-02-26T03:27:58.315Z,17.3
2019-02-26T03:29:00.747Z,17.4
2019-02-26T03:30:03.185Z,17.4
2019-02-26T03:31:05.618Z,17.3
2019-02-26T03:32:08.076Z,17.4
2019-02-26T03:33:10.526Z,17.4
2019-02-26T03:36:22.931Z,17.4
2019-02-26T03:37:28.683Z,17.2
2019-02-26T03:38:35.178Z,17.3
2019-02-26T03:39:37.623Z,17.3
2019-02-26T03:40:40.044Z,17.3
2019-02-26T03:42:47.447Z,17.3
2019-02-26T03:43:49.873Z,17.3
2019-02-26T03:44:52.302Z,17.4
2019-02-26T03:45:54.730Z,17.3
2019-02-26T03:46:57.150Z,17.4
2019-02-26T03:47:59.306Z,17.3
2019-02-26T03:51:11.407Z,17.3
2019-02-26T03:53:18.537Z,17.2
2019-02-26T03:54:20.974Z,17.3
2019-02-26T03:55:23.406Z,17.3
2019-02-26T03:56:25.589Z,17.3
2019-02-26T03:57:28.020Z,17.3
2019-02-26T03:58:30.442Z,17.4
2019-02-26T03:59:32.787Z,17.4
2019-02-26T04:01:39.900Z,17.3
2019-02-26T04:03:47.040Z,17.3
2019-02-26T04:08:05.073Z,17.3
2019-02-26T04:10:11.918Z,17.3
2019-02-26T04:12:21.339Z,17.3
2019-02-26T04:13:23.193Z,17.2
2019-02-26T04:17:42.772Z,17.2
2019-02-26T04:18:45.202Z,17.1
2019-02-26T04:19:52.118Z,17.2
2019-02-26T04:20:56.748Z,17.2
2019-02-26T04:22:00.022Z,17.1
2019-02-26T04:23:02.202Z,17.1
2019-02-26T04:25:09.950Z,17.1
2019-02-26T04:27:17.122Z,17.1
2019-02-26T04:28:19.543Z,17.1
2019-02-26T04:29:21.996Z,17.1
2019-02-26T04:30:24.441Z,17.1
2019-02-26T04:31:26.586Z,17
2019-02-26T04:32:28.741Z,17.1
2019-02-26T04:33:35.804Z,17.1
2019-02-26T04:34:38.776Z,17
2019-02-26T04:35:44.877Z,17
2019-02-26T04:36:48.762Z,17.1
2019-02-26T04:38:56.212Z,17
2019-02-26T04:43:13.663Z,17
2019-02-26T04:44:19.134Z,16.9
2019-02-26T04:45:21.579Z,17
2019-02-26T04:48:34.859Z,17
2019-02-26T04:52:52.271Z,17
2019-02-26T04:54:02.098Z,17
2019-02-26T04:55:04.342Z,16.9
2019-02-26T04:57:11.748Z,17
2019-02-26T04:59:19.161Z,17
2019-02-26T05:00:21.034Z,17
2019-02-26T05:01:29.604Z,17
2019-02-26T05:02:32.041Z,16.9
2019-02-26T05:03:34.458Z,17
2019-02-26T05:04:39.871Z,16.9
2019-02-26T05:05:43.409Z,16.9
2019-02-26T05:06:45.560Z,16.9
2019-02-26T05:08:55.805Z,16.9
2019-02-26T05:11:03.438Z,17
2019-02-26T05:12:05.327Z,16.9
2019-02-26T05:21:47.611Z,16.9
2019-02-26T05:22:51.921Z,16.9
2019-02-26T05:25:00.241Z,16.8
2019-02-26T05:29:17.626Z,16.9
2019-02-26T05:31:25.038Z,16.9
2019-02-26T05:33:33.351Z,16.9
2019-02-26T05:34:39.641Z,17
2019-02-26T05:36:48.030Z,16.9
2019-02-26T05:37:50.190Z,16.9
2019-02-26T05:39:57.604Z,16.9
2019-02-26T05:41:00.019Z,17
2019-02-26T05:43:07.446Z,16.8
2019-02-26T05:44:11.270Z,16.9
2019-02-26T05:45:13.718Z,16.9
2019-02-26T05:47:24.022Z,16.9
2019-02-26T05:48:27.879Z,16.9
2019-02-26T05:51:40.278Z,16.9
2019-02-26T05:52:42.718Z,16.9
2019-02-26T05:53:44.871Z,16.8
2019-02-26T05:54:47.307Z,16.8
2019-02-26T05:55:53.973Z,16.9
2019-02-26T05:56:56.918Z,16.8
2019-02-26T05:57:59.359Z,16.9
2019-02-26T06:00:11.442Z,16.8
2019-02-26T06:03:24.207Z,16.8
2019-02-26T06:04:26.638Z,16.8
2019-02-26T06:05:28.796Z,16.8
2019-02-26T06:06:31.253Z,16.8
2019-02-26T06:09:45.292Z,16.8
2019-02-26T06:10:48.849Z,16.8
2019-02-26T06:11:51.006Z,16.8
2019-02-26T06:12:53.446Z,16.8
2019-02-26T06:18:15.509Z,16.8
2019-02-26T06:19:18.832Z,16.8
2019-02-26T06:20:23.328Z,16.8
2019-02-26T06:21:29.464Z,16.8
2019-02-26T06:22:34.501Z,16.9
2019-02-26T06:24:41.996Z,16.8
2019-02-26T06:25:43.904Z,16.8
2019-02-26T06:26:46.137Z,16.8
2019-02-26T06:27:48.038Z,16.9
2019-02-26T06:28:52.820Z,16.9
2019-02-26T06:31:00.393Z,16.9
2019-02-26T06:34:16.304Z,16.8
2019-02-26T06:35:20.309Z,16.9
2019-02-26T06:36:25.742Z,16.8
2019-02-26T06:38:37.721Z,16.7
2019-02-26T06:39:39.893Z,16.8
2019-02-26T06:41:51.160Z,16.8
2019-02-26T06:42:53.655Z,16.8
2019-02-26T06:43:55.831Z,16.8
2019-02-26T06:44:57.967Z,16.8
2019-02-26T06:46:02.656Z,16.8
2019-02-26T06:47:09.191Z,16.7
2019-02-26T06:50:21.288Z,16.7
2019-02-26T06:53:33.394Z,16.8
2019-02-26T06:54:35.810Z,16.8
2019-02-26T06:55:37.976Z,16.7
2019-02-26T06:58:50.107Z,16.8
2019-02-26T07:00:57.547Z,16.8
2019-02-26T07:01:59.974Z,16.8
2019-02-26T07:03:03.221Z,16.7
2019-02-26T07:04:05.350Z,16.8
2019-02-26T07:05:07.769Z,16.8
2019-02-26T07:06:09.939Z,16.8
2019-02-26T07:08:18.968Z,16.8
2019-02-26T07:09:22.811Z,16.8
2019-02-26T07:11:33.563Z,16.7
2019-02-26T07:15:52.350Z,16.7
2019-02-26T07:20:09.745Z,16.8
2019-02-26T07:21:11.924Z,16.8
2019-02-26T07:22:18.180Z,16.8
2019-02-26T07:23:20.509Z,16.8
2019-02-26T07:24:27.031Z,16.8
2019-02-26T07:25:31.274Z,16.8
2019-02-26T07:27:42.275Z,16.8
2019-02-26T07:28:48.299Z,16.7
2019-02-26T07:29:52.937Z,16.8
2019-02-26T07:30:54.536Z,16.8
2019-02-26T07:31:58.953Z,16.7
2019-02-26T07:33:05.158Z,16.7
2019-02-26T07:34:11.285Z,16.8
2019-02-26T07:37:23.391Z,16.8
2019-02-26T07:38:28.088Z,16.7
2019-02-26T07:39:30.521Z,16.7
2019-02-26T07:40:35.806Z,16.8
2019-02-26T07:41:39.459Z,16.8
2019-02-26T07:42:49.157Z,16.7
2019-02-26T07:43:54.704Z,16.7
2019-02-26T07:44:57.273Z,16.8
2019-02-26T07:45:59.427Z,16.7
2019-02-26T07:48:05.999Z,16.8
2019-02-26T07:49:07.887Z,16.7
2019-02-26T07:51:15.027Z,16.7
2019-02-26T07:52:17.188Z,16.8
2019-02-26T07:54:24.301Z,16.8
2019-02-26T07:55:30.202Z,16.8
2019-02-26T07:56:36.010Z,16.7
2019-02-26T07:57:40.327Z,16.7
2019-02-26T07:58:48.780Z,16.7
2019-02-26T07:59:51.225Z,16.7
2019-02-26T08:00:53.595Z,16.7
2019-02-26T08:01:55.746Z,16.7
2019-02-26T08:03:01.948Z,16.7
2019-02-26T08:04:11.057Z,16.7
2019-02-26T08:05:16.123Z,16.7
2019-02-26T08:06:19.756Z,16.7
2019-02-26T08:08:26.611Z,16.7
2019-02-26T08:11:44.323Z,16.8
2019-02-26T08:12:47.893Z,16.8
2019-02-26T08:13:54.134Z,16.7
2019-02-26T08:15:02.309Z,16.7
2019-02-26T08:16:05.776Z,16.7
2019-02-26T08:17:07.937Z,16.7
2019-02-26T08:18:10.354Z,16.8
2019-02-26T08:19:12.497Z,16.8
2019-02-26T08:20:15.458Z,16.8
2019-02-26T08:22:22.607Z,16.7
2019-02-26T08:23:30.689Z,16.7
2019-02-26T08:24:33.059Z,16.8
2019-02-26T08:25:35.495Z,16.7
2019-02-26T08:27:42.647Z,16.7
2019-02-26T08:28:48.207Z,16.7
2019-02-26T08:32:02.508Z,16.7
2019-02-26T08:36:19.637Z,16.7
2019-02-26T08:37:22.070Z,16.8
2019-02-26T08:38:24.230Z,16.8
2019-02-26T08:39:30.177Z,16.7
2019-02-26T08:40:32.336Z,16.7
2019-02-26T08:41:34.777Z,16.8
2019-02-26T08:42:36.925Z,16.8
2019-02-26T08:45:48.753Z,16.8
2019-02-26T08:46:51.191Z,16.7
2019-02-26T08:47:53.343Z,16.8
2019-02-26T08:48:55.779Z,16.8
2019-02-26T08:50:01.621Z,16.7
2019-02-26T08:52:10.133Z,16.7
2019-02-26T08:53:12.601Z,16.7
2019-02-26T08:57:29.411Z,16.8
2019-02-26T08:58:31.571Z,16.8
2019-02-26T08:59:33.985Z,16.8
2019-02-26T09:00:36.423Z,16.8
2019-02-26T09:01:38.291Z,16.8
2019-02-26T09:03:45.427Z,16.8
2019-02-26T09:04:56.715Z,16.8
2019-02-26T09:07:16.352Z,16.7
2019-02-26T09:08:27.353Z,16.8
2019-02-26T09:09:33.767Z,16.7
2019-02-26T09:10:38.698Z,16.7
2019-02-26T09:11:45.436Z,16.8
2019-02-26T09:12:51.663Z,16.7
2019-02-26T09:14:59.854Z,16.7
2019-02-26T09:17:07.280Z,16.7
2019-02-26T09:18:09.715Z,16.7
2019-02-26T09:19:11.864Z,16.8
2019-02-26T09:20:15.237Z,16.8
2019-02-26T09:22:26.477Z,16.8
2019-02-26T09:23:32.841Z,16.8
2019-02-26T09:24:35.079Z,16.8
2019-02-26T09:25:37.724Z,16.8
2019-02-26T09:26:39.868Z,16.8
2019-02-26T09:27:43.599Z,16.8
2019-02-26T09:28:49.941Z,16.8
2019-02-26T09:29:55.974Z,16.7
2019-02-26T09:33:10.992Z,16.7
2019-02-26T09:34:13.199Z,16.7
2019-02-26T09:37:25.305Z,16.8
2019-02-26T09:38:27.465Z,16.7
2019-02-26T09:39:32.328Z,16.8
2019-02-26T09:40:38.433Z,16.8
2019-02-26T09:43:50.828Z,16.8
2019-02-26T09:45:58.230Z,16.8
2019-02-26T09:48:05.634Z,16.8
2019-02-26T09:50:15.267Z,16.8
2019-02-26T09:51:24.059Z,16.7
2019-02-26T09:53:31.189Z,16.8
2019-02-26T09:55:38.609Z,16.8
2019-02-26T09:56:40.740Z,16.7
2019-02-26T09:57:43.160Z,16.8
2019-02-26T09:59:55.137Z,16.7
2019-02-26T10:00:58.170Z,16.8
2019-02-26T10:02:04.008Z,16.6
2019-02-26T10:04:13.074Z,16.8
2019-02-26T10:06:23.555Z,16.8
2019-02-26T10:08:31.196Z,16.8
2019-02-26T10:10:40.374Z,16.7
2019-02-26T10:12:47.517Z,16.7
2019-02-26T10:13:54.410Z,16.8
2019-02-26T10:17:06.812Z,16.7
2019-02-26T10:18:15.098Z,16.8
2019-02-26T10:21:27.217Z,16.8
2019-02-26T10:23:34.625Z,16.8
2019-02-26T10:25:42.047Z,16.8
2019-02-26T10:26:44.476Z,16.8
2019-02-26T10:27:48.372Z,16.8
2019-02-26T10:29:55.798Z,16.7
2019-02-26T10:32:02.621Z,16.8
2019-02-26T10:33:04.778Z,16.8
2019-02-26T10:36:18.916Z,16.8
2019-02-26T10:37:21.352Z,16.7
2019-02-26T10:39:28.898Z,16.8
2019-02-26T10:42:42.983Z,16.7
2019-02-26T10:43:47.847Z,16.8
2019-02-26T10:44:50.280Z,16.8
2019-02-26T10:48:02.670Z,16.8
2019-02-26T10:49:05.096Z,16.8
2019-02-26T10:50:07.537Z,16.8
2019-02-26T10:51:17.605Z,16.8
2019-02-26T10:52:26.363Z,16.8
2019-02-26T10:53:30.651Z,16.8
2019-02-26T10:57:48.370Z,16.8
2019-02-26T11:02:05.748Z,16.7
2019-02-26T11:03:12.696Z,16.7
2019-02-26T11:04:15.849Z,16.8
2019-02-26T11:06:22.987Z,16.7
2019-02-26T11:09:34.901Z,16.8
2019-02-26T11:11:42.891Z,16.9
2019-02-26T11:14:58.549Z,16.8
2019-02-26T11:16:03.599Z,16.8
2019-02-26T11:17:06.057Z,16.8
2019-02-26T11:19:13.472Z,16.8
2019-02-26T11:20:15.890Z,16.8
2019-02-26T11:21:24.698Z,16.8
2019-02-26T11:22:28.572Z,16.8
2019-02-26T11:24:36.846Z,16.8
2019-02-26T11:25:39.000Z,16.8
2019-02-26T11:28:51.316Z,16.8
2019-02-26T11:29:57.607Z,16.8
2019-02-26T11:31:01.015Z,16.8
2019-02-26T11:34:13.899Z,16.8
2019-02-26T11:36:21.286Z,16.8
2019-02-26T11:37:27.108Z,16.8
2019-02-26T11:38:30.787Z,16.8
2019-02-26T11:39:37.200Z,16.8
2019-02-26T11:40:39.632Z,16.7
2019-02-26T11:41:42.054Z,16.8
2019-02-26T11:43:48.915Z,16.8
2019-02-26T11:44:50.785Z,16.8
2019-02-26T11:45:52.705Z,16.8
2019-02-26T11:46:57.123Z,16.8
2019-02-26T11:49:05.261Z,16.8
2019-02-26T11:50:11.728Z,16.8
2019-02-26T11:52:20.708Z,16.8
2019-02-26T11:53:23.138Z,16.8
2019-02-26T11:54:25.298Z,16.8
2019-02-26T11:58:47.132Z,16.8
2019-02-26T11:59:49.572Z,16.8
2019-02-26T12:00:51.589Z,16.8
2019-02-26T12:01:57.007Z,16.7
2019-02-26T12:03:00.538Z,16.8
2019-02-26T12:05:10.729Z,16.8
2019-02-26T12:06:13.251Z,16.8
2019-02-26T12:07:15.422Z,16.8
2019-02-26T12:08:22.245Z,16.8
2019-02-26T12:09:25.422Z,16.8
2019-02-26T12:11:32.833Z,16.8
2019-02-26T12:12:37.420Z,16.7
2019-02-26T12:13:42.750Z,16.8
2019-02-26T12:15:51.020Z,16.7
2019-02-26T12:16:53.443Z,16.7
2019-02-26T12:19:03.991Z,16.7
2019-02-26T12:20:07.754Z,16.8
2019-02-26T12:21:12.841Z,16.8
2019-02-26T12:22:15.109Z,16.8
2019-02-26T12:24:30.772Z,16.8
2019-02-26T12:25:34.377Z,16.8
2019-02-26T12:26:36.808Z,16.8
2019-02-26T12:28:44.322Z,16.8
2019-02-26T12:30:51.464Z,16.8
2019-02-26T12:32:58.865Z,16.7
2019-02-26T12:34:01.013Z,16.8
2019-02-26T12:36:10.618Z,16.8
2019-02-26T12:37:13.050Z,16.8
2019-02-26T12:40:26.011Z,16.8
2019-02-26T12:41:28.172Z,16.8
2019-02-26T12:42:30.640Z,16.8
2019-02-26T12:43:36.615Z,16.7
2019-02-26T12:45:44.962Z,16.8
2019-02-26T12:48:57.068Z,16.8
2019-02-26T12:51:07.667Z,16.8
2019-02-26T12:52:10.236Z,16.8
2019-02-26T12:54:17.369Z,16.8
2019-02-26T12:55:21.541Z,16.8
2019-02-26T12:57:31.523Z,16.8
2019-02-26T12:58:33.812Z,16.8
2019-02-26T12:59:35.957Z,16.8
2019-02-26T13:02:52.276Z,16.8
2019-02-26T13:03:55.890Z,16.7
2019-02-26T13:04:58.318Z,16.8
2019-02-26T13:06:00.484Z,16.8
2019-02-26T13:09:17.362Z,16.8
2019-02-26T13:10:19.810Z,16.7
2019-02-26T13:13:31.886Z,16.7
2019-02-26T13:14:34.312Z,16.8
2019-02-26T13:15:36.458Z,16.8
2019-02-26T13:16:38.337Z,16.8
2019-02-26T13:17:40.781Z,16.7
2019-02-26T13:25:21.409Z,16.8
2019-02-26T13:26:24.507Z,16.8
2019-02-26T13:27:26.660Z,16.8
2019-02-26T13:28:30.224Z,16.7
2019-02-26T13:29:32.408Z,16.8
2019-02-26T13:30:34.961Z,16.8
2019-02-26T13:33:46.905Z,16.8
2019-02-26T13:36:59.545Z,16.8
2019-02-26T13:38:01.978Z,16.8
2019-02-26T13:39:05.206Z,16.8
2019-02-26T13:40:07.721Z,16.8
2019-02-26T13:43:19.559Z,16.7
2019-02-26T13:44:21.449Z,16.8
2019-02-26T13:45:23.597Z,16.8
2019-02-26T13:46:26.024Z,16.8
2019-02-26T13:47:28.200Z,16.8
2019-02-26T13:48:30.378Z,16.8
2019-02-26T13:49:32.538Z,16.8
2019-02-26T13:50:34.693Z,16.8
2019-02-26T13:51:37.139Z,16.7
2019-02-26T13:52:39.564Z,16.7
2019-02-26T13:53:41.709Z,16.8
2019-02-26T13:54:43.870Z,16.8
2019-02-26T13:55:45.740Z,16.8
2019-02-26T13:56:48.170Z,16.7
2019-02-26T13:57:50.338Z,16.8
2019-02-26T13:58:52.509Z,16.8
2019-02-26T13:59:54.682Z,16.8
2019-02-26T14:00:56.844Z,16.8
2019-02-26T14:01:59.284Z,16.7
2019-02-26T14:03:01.589Z,16.8
2019-02-26T14:04:06.188Z,16.8
2019-02-26T14:05:09.428Z,16.7
2019-02-26T14:06:11.865Z,16.8
2019-02-26T14:07:14.295Z,16.8
2019-02-26T14:08:16.839Z,16.8
2019-02-26T14:09:19.275Z,16.7
2019-02-26T14:10:21.704Z,16.8
2019-02-26T14:11:24.116Z,16.8
2019-02-26T14:12:26.266Z,16.8
2019-02-26T14:13:28.689Z,16.7
2019-02-26T14:14:30.840Z,16.8
2019-02-26T14:15:32.995Z,16.8
2019-02-26T14:16:36.062Z,16.8
2019-02-26T14:17:38.548Z,16.8
2019-02-26T14:18:40.936Z,16.8
2019-02-26T14:19:42.809Z,16.9
2019-02-26T14:20:46.131Z,16.8
2019-02-26T14:21:48.565Z,16.8
2019-02-26T14:22:50.710Z,16.8
2019-02-26T14:23:53.138Z,16.8
2019-02-26T14:24:55.298Z,16.8
2019-02-26T14:25:57.734Z,16.8
2019-02-26T14:26:59.316Z,16.7
2019-02-26T14:28:01.466Z,16.8
2019-02-26T14:29:03.898Z,16.8
2019-02-26T14:30:06.054Z,16.8
2019-02-26T14:31:08.647Z,16.7
2019-02-26T14:32:10.826Z,16.8
2019-02-26T14:33:13.694Z,16.8
2019-02-26T14:34:16.130Z,16.8
2019-02-26T14:35:18.565Z,16.8
2019-02-26T14:36:20.730Z,16.8
2019-02-26T14:37:23.165Z,16.7
2019-02-26T14:38:25.606Z,16.8
2019-02-26T14:39:28.045Z,16.8
2019-02-26T14:40:30.210Z,16.7
2019-02-26T14:41:32.640Z,16.8
2019-02-26T14:42:34.778Z,16.8
2019-02-26T14:43:37.212Z,16.8
2019-02-26T14:44:39.347Z,16.9
2019-02-26T14:45:42.108Z,16.8
2019-02-26T14:46:45.283Z,16.8
2019-02-26T14:47:47.438Z,16.8
2019-02-26T14:48:49.882Z,16.7
2019-02-26T14:49:52.044Z,16.8
2019-02-26T14:50:54.206Z,16.8
2019-02-26T14:51:56.639Z,16.7
2019-02-26T14:52:59.067Z,16.7
2019-02-26T14:54:01.282Z,16.8
2019-02-26T14:55:04.065Z,16.8
2019-02-26T14:56:06.493Z,16.9
2019-02-26T14:57:08.931Z,16.8
2019-02-26T14:58:11.067Z,16.8
2019-02-26T14:59:13.680Z,16.8
2019-02-26T15:00:16.649Z,16.8
2019-02-26T15:01:19.624Z,16.8
2019-02-26T15:02:21.786Z,16.8
2019-02-26T15:03:24.218Z,16.8
2019-02-26T15:04:26.382Z,16.8
2019-02-26T15:05:28.558Z,16.8
2019-02-26T15:06:30.723Z,16.7
2019-02-26T15:07:32.877Z,16.8
2019-02-26T15:08:34.742Z,16.8
2019-02-26T15:09:36.612Z,16.8
2019-02-26T15:10:39.035Z,16.8
2019-02-26T15:11:41.499Z,16.8
2019-02-26T15:12:44.126Z,16.8
2019-02-26T15:13:46.871Z,16.8
2019-02-26T15:14:49.880Z,16.8
2019-02-26T15:15:52.393Z,16.7
2019-02-26T15:16:54.575Z,16.8
2019-02-26T15:17:57.021Z,16.8
2019-02-26T15:18:59.179Z,16.8
2019-02-26T15:20:01.318Z,16.8
2019-02-26T15:21:03.258Z,16.8
2019-02-26T15:22:05.699Z,16.8
2019-02-26T15:23:08.145Z,16.8
2019-02-26T15:24:10.285Z,16.8
2019-02-26T15:25:12.721Z,16.8
2019-02-26T15:26:15.211Z,16.8
2019-02-26T15:27:17.682Z,16.7
2019-02-26T15:28:20.794Z,16.7
2019-02-26T15:29:23.233Z,16.8
2019-02-26T15:30:25.403Z,16.9
2019-02-26T15:31:27.530Z,16.8
2019-02-26T15:32:29.950Z,16.8
2019-02-26T15:33:32.117Z,16.8
2019-02-26T15:34:33.747Z,16.8
2019-02-26T15:35:36.182Z,16.8
2019-02-26T15:36:39.125Z,16.9
2019-02-26T15:37:41.323Z,16.8
2019-02-26T15:38:43.493Z,16.8
2019-02-26T15:39:46.109Z,16.8
2019-02-26T15:40:48.582Z,16.7
2019-02-26T15:41:54.037Z,16.9
2019-02-26T15:42:56.969Z,16.8
2019-02-26T15:43:59.110Z,16.8
2019-02-26T15:45:01.034Z,16.8
2019-02-26T15:46:03.209Z,16.8
2019-02-26T15:47:05.636Z,16.8
2019-02-26T15:48:10.241Z,16.8
2019-02-26T15:49:12.676Z,16.8
2019-02-26T15:50:14.830Z,16.8
2019-02-26T15:52:22.795Z,16.8
2019-02-26T15:53:24.950Z,16.8
2019-02-26T15:54:27.890Z,16.8
2019-02-26T15:55:30.270Z,16.9
2019-02-26T15:56:33.014Z,16.8
2019-02-26T15:57:35.595Z,16.8
2019-02-26T15:58:38.043Z,16.9
2019-02-26T15:59:40.467Z,16.8
2019-02-26T16:00:42.897Z,16.8
2019-02-26T16:01:45.051Z,16.8
2019-02-26T16:02:46.903Z,16.8
2019-02-26T16:03:49.345Z,16.8
2019-02-26T16:04:51.493Z,16.8
2019-02-26T16:05:54.549Z,16.8
2019-02-26T16:06:56.142Z,16.8
2019-02-26T16:07:58.299Z,16.8
2019-02-26T16:09:00.904Z,16.8
2019-02-26T16:10:03.687Z,16.8
2019-02-26T16:11:06.660Z,16.8
2019-02-26T16:12:08.820Z,16.8
2019-02-26T16:13:11.248Z,16.8
2019-02-26T16:14:13.674Z,16.8
2019-02-26T16:15:15.813Z,16.8
2019-02-26T16:16:18.612Z,16.8
2019-02-26T16:17:20.786Z,16.8
2019-02-26T16:18:22.944Z,16.8
2019-02-26T16:19:24.837Z,16.8
2019-02-26T16:20:26.987Z,16.8
2019-02-26T16:21:29.159Z,16.8
2019-02-26T16:22:31.850Z,16.9
2019-02-26T16:23:34.998Z,16.8
2019-02-26T16:24:37.158Z,16.7
2019-02-26T16:25:40.075Z,16.8
2019-02-26T16:26:42.503Z,16.9
2019-02-26T16:27:44.932Z,16.9
2019-02-26T16:28:47.376Z,16.7
2019-02-26T16:29:49.541Z,16.8
2019-02-26T16:30:55.590Z,16.7
2019-02-26T16:31:57.550Z,16.8
2019-02-26T16:32:59.157Z,16.8
2019-02-26T16:34:01.633Z,16.8
2019-02-26T16:35:03.793Z,16.8
2019-02-26T16:36:06.471Z,16.8
2019-02-26T16:37:08.664Z,16.8
2019-02-26T16:39:16.751Z,16.8
2019-02-26T16:40:18.909Z,16.8
2019-02-26T16:41:21.334Z,16.8
2019-02-26T16:42:23.505Z,16.8
2019-02-26T16:43:25.940Z,16.7
2019-02-26T16:44:28.107Z,16.8
2019-02-26T16:46:35.339Z,16.8
2019-02-26T16:47:37.775Z,16.8
2019-02-26T16:48:40.208Z,16.8
2019-02-26T16:49:42.366Z,16.8
2019-02-26T16:50:46.383Z,16.7
2019-02-26T16:51:49.311Z,16.8
2019-02-26T16:54:01.212Z,16.8
2019-02-26T16:55:08.118Z,16.8
2019-02-26T16:56:10.277Z,16.8
2019-02-26T16:57:12.450Z,16.9
2019-02-26T16:58:14.624Z,16.8
2019-02-26T16:59:17.048Z,16.7
2019-02-26T17:00:21.107Z,16.8
2019-02-26T17:01:23.256Z,16.8
2019-02-26T17:04:35.650Z,16.8
2019-02-26T17:05:42.151Z,16.8
2019-02-26T17:06:48.672Z,16.8
2019-02-26T17:07:55.091Z,16.8
2019-02-26T17:08:57.525Z,16.8
2019-02-26T17:09:59.993Z,16.8
2019-02-26T17:11:03.357Z,16.8
2019-02-26T17:12:05.851Z,16.8
2019-02-26T17:13:08.008Z,16.8
2019-02-26T17:14:10.164Z,16.8
2019-02-26T17:15:12.590Z,16.8
2019-02-26T17:16:15.063Z,16.8
2019-02-26T17:17:17.548Z,16.8
2019-02-26T17:18:19.749Z,16.8
2019-02-26T17:19:21.906Z,16.8
2019-02-26T17:20:26.200Z,16.8
2019-02-26T17:22:33.824Z,16.8
2019-02-26T17:23:36.456Z,16.8
2019-02-26T17:24:38.750Z,16.8
2019-02-26T17:25:41.614Z,16.8
2019-02-26T17:26:43.484Z,16.8
2019-02-26T17:27:45.914Z,16.8
2019-02-26T17:28:48.368Z,16.8
2019-02-26T17:29:50.807Z,16.8
2019-02-26T17:30:52.411Z,16.8
2019-02-26T17:31:58.825Z,16.8
2019-02-26T17:33:04.973Z,16.8
2019-02-26T17:34:06.826Z,16.8
2019-02-26T17:35:09.130Z,16.8
2019-02-26T17:36:11.631Z,16.8
2019-02-26T17:37:13.841Z,16.8
2019-02-26T17:39:23.610Z,16.8
2019-02-26T17:40:26.945Z,16.8
2019-02-26T17:41:29.625Z,16.8
2019-02-26T17:42:31.784Z,16.8
2019-02-26T17:43:34.210Z,16.7
2019-02-26T17:44:36.732Z,16.7
2019-02-26T17:45:39.168Z,16.8
2019-02-26T17:46:41.346Z,16.8
2019-02-26T17:47:43.486Z,16.8
2019-02-26T17:48:45.922Z,16.8
2019-02-26T17:49:48.373Z,16.8
2019-02-26T17:50:50.529Z,16.8
2019-02-26T17:51:52.994Z,16.8
2019-02-26T17:52:55.187Z,16.8
2019-02-26T17:53:58.511Z,16.8
2019-02-26T17:55:05.152Z,16.8
2019-02-26T17:56:11.087Z,16.8
2019-02-26T17:57:13.527Z,16.8
2019-02-26T17:58:15.962Z,16.9
2019-02-26T17:59:18.393Z,16.8
2019-02-26T18:00:20.829Z,16.8
2019-02-26T18:01:23.256Z,16.8
2019-02-26T18:02:28.019Z,16.8
2019-02-26T18:03:30.465Z,16.8
2019-02-26T18:04:32.901Z,16.8
2019-02-26T18:06:40.338Z,16.8
2019-02-26T18:07:42.787Z,16.9
2019-02-26T18:08:45.282Z,16.8
2019-02-26T18:09:47.798Z,16.8
2019-02-26T18:10:51.654Z,16.7
2019-02-26T18:11:53.823Z,16.8
2019-02-26T18:12:56.513Z,16.8
2019-02-26T18:14:01.185Z,16.7
2019-02-26T18:15:03.335Z,16.8
2019-02-26T18:17:10.473Z,16.8
2019-02-26T18:18:12.624Z,16.8
2019-02-26T18:19:14.764Z,16.8
2019-02-26T18:20:16.906Z,16.7
2019-02-26T18:21:19.338Z,16.8
2019-02-26T18:22:22.736Z,16.8
2019-02-26T18:23:24.882Z,16.7
2019-02-26T18:24:27.041Z,16.8
2019-02-26T18:25:29.208Z,16.8
2019-02-26T18:26:31.673Z,16.8
2019-02-26T18:27:34.118Z,16.8
2019-02-26T18:28:37.367Z,16.8
2019-02-26T18:29:39.797Z,16.8
2019-02-26T18:30:42.287Z,16.7
2019-02-26T18:31:44.714Z,16.8
2019-02-26T18:33:52.142Z,16.7
2019-02-26T18:34:54.585Z,16.8
2019-02-26T18:35:57.023Z,16.8
2019-02-26T18:37:01.279Z,16.8
2019-02-26T18:38:03.745Z,16.8
2019-02-26T18:39:05.891Z,16.8
2019-02-26T18:40:08.320Z,16.8
2019-02-26T18:41:10.478Z,16.8
2019-02-26T18:42:12.952Z,16.8
2019-02-26T18:43:16.850Z,16.8
2019-02-26T18:46:28.671Z,16.8
2019-02-26T18:47:35.134Z,16.8
2019-02-26T18:48:37.581Z,16.8
2019-02-26T18:49:40.001Z,16.8
2019-02-26T18:50:42.435Z,16.8
2019-02-26T18:51:44.890Z,16.8
2019-02-26T18:52:47.357Z,16.9